Susan Miller — WDC6990 — position and weather

sailwx.info

Track history (hours):
 
Tides and Currents Weather Stations Pressure Air Temp Water Temp Dewpoint Dewpoint Depression Visibility Wind Speed Wind Dir Waves Ship Positions

Susan Miller

Owner: Miller's Tug & Barge, Staten Island, NY. More information available from US FCC via Universal Licensing System and Coast Guard Vessel Documentation Center.

Last reported at 2017-Oct-17 23:57 UTC. Time now 2017-Oct-18 05:32 UTC.
Position N 40°38' W 074°04'.

Length 20 m; draft 3 m.

Type: Tug. MMSI: 367064470.

Date/timePositionNaut miles runAvg speedWind from/ knotsBaromVisibWave heightAir tempDewpointWater temp
2017-Oct-17 23:57N 40°38' W 074°04'2 5.0
2017-Oct-17 23:30N 40°40' W 074°03'3 6.9
2017-Oct-17 23:00N 40°43' W 074°02'3 6.7
2017-Oct-17 22:30N 40°47' W 074°00'2 4.3
2017-Oct-17 22:00N 40°49' W 073°59'0 0.2
2017-Oct-17 21:30N 40°49' W 073°59'0 0.0
2017-Oct-17 21:00N 40°49' W 073°59'3 5.1
2017-Oct-17 20:30N 40°46' W 074°00'0 0.1
2017-Oct-17 20:00N 40°46' W 074°00'0 0.1
2017-Oct-17 19:30N 40°46' W 074°00'0 0.4
2017-Oct-17 19:00N 40°46' W 073°60'0 0.0
2017-Oct-17 18:30N 40°46' W 073°60'0 0.0
2017-Oct-17 18:00N 40°46' W 073°60'0 0.0
2017-Oct-17 17:30N 40°46' W 073°60'0 0.0
2017-Oct-17 17:00N 40°46' W 073°60'0 0.0
2017-Oct-17 16:30N 40°46' W 073°60'0 0.0
2017-Oct-17 16:00N 40°46' W 073°60'0 0.0
2017-Oct-17 15:30N 40°46' W 073°60'0 0.0
2017-Oct-17 15:00N 40°46' W 073°60'0 0.0
2017-Oct-17 14:30N 40°46' W 073°60'0 0.0
2017-Oct-17 14:00N 40°46' W 073°60'0 0.0
2017-Oct-17 13:30N 40°46' W 073°60'1 1.7
2017-Oct-17 13:00N 40°47' W 073°60'4 8.6
2017-Oct-17 12:30N 40°43' W 074°01'4 7.0
2017-Oct-17 12:00N 40°40' W 074°04'0 0.4
2017-Oct-17 11:30N 40°40' W 074°04'2 0.2
2017-Oct-16 22:17N 40°38' W 074°04'2 5.5
2017-Oct-16 22:00N 40°37' W 074°03'5 8.8
2017-Oct-16 21:29N 40°32' W 074°02'4 6.5
2017-Oct-16 20:54N 40°29' W 073°60'0 0.1
2017-Oct-16 20:13N 40°29' W 073°60'0 1.3
2017-Oct-16 19:54N 40°29' W 074°00'4 8.4
2017-Oct-16 19:27N 40°33' W 074°02'4 9.5
2017-Oct-16 19:00N 40°37' W 074°03'2 3.5
2017-Oct-16 18:30N 40°38' W 074°04'2 4.7
2017-Oct-16 18:00N 40°39' W 074°07'3 6.2
2017-Oct-16 17:30N 40°42' W 074°07'3 6.4
2017-Oct-16 17:00N 40°44' W 074°05'0 0.2
2017-Oct-16 16:30N 40°44' W 074°05'3 5.7
2017-Oct-16 16:00N 40°42' W 074°07'3 6.6
2017-Oct-16 15:30N 40°39' W 074°09'3 6.2
2017-Oct-16 15:00N 40°39' W 074°05'1 2.4
2017-Oct-16 14:30N 40°38' W 074°04'6 5.5
2017-Oct-16 13:30N 40°38' W 074°12'2 0.9
2017-Oct-16 10:58N 40°36' W 074°12'3 5.5
2017-Oct-16 10:27N 40°39' W 074°11'3 6.1
2017-Oct-16 10:00N 40°39' W 074°07'3 6.1
2017-Oct-16 09:30N 40°40' W 074°03'2 3.7
2017-Oct-16 09:00N 40°40' W 074°01'1 3.0
2017-Oct-16 08:30N 40°40' W 074°03'2 3.7
2017-Oct-16 08:00N 40°38' W 074°04'0 0.0
2017-Oct-14 17:50N 40°38' W 074°04'0 0.1
2017-Oct-14 17:30N 40°38' W 074°04'0 0.0
2017-Oct-14 16:59N 40°38' W 074°04'0 0.0
2017-Oct-14 16:30N 40°38' W 074°04'0 0.0
2017-Oct-14 16:00N 40°38' W 074°04'0 0.0
2017-Oct-14 15:29N 40°38' W 074°04'0 0.0
2017-Oct-14 15:00N 40°38' W 074°04'1 2.7
2017-Oct-14 14:30N 40°37' W 074°04'3 5.4
2017-Oct-14 13:59N 40°34' W 074°02'6 2.8
2017-Oct-14 11:57N 40°34' W 073°54'4 7.2
2017-Oct-14 11:28N 40°34' W 073°59'4 8.8
2017-Oct-14 11:00N 40°37' W 074°03'2 0.1
2017-Oct-13 21:26N 40°38' W 074°04'1 2.2
2017-Oct-13 21:00N 40°39' W 074°04'3 6.8
2017-Oct-13 20:30N 40°42' W 074°02'3 6.3
2017-Oct-13 20:00N 40°45' W 074°01'3 5.7
2017-Oct-13 19:30N 40°48' W 073°59'3 5.8
2017-Oct-13 19:00N 40°50' W 073°58'4 0.4
2017-Oct-13 09:55N 40°54' W 073°55'3 8.0
2017-Oct-13 09:29N 40°51' W 073°57'4 7.9
2017-Oct-13 09:00N 40°47' W 073°59'4 8.1
2017-Oct-13 08:30N 40°44' W 074°01'4 8.0
2017-Oct-13 08:00N 40°40' W 074°03'2 3.6
2017-Oct-13 07:30N 40°38' W 074°04'0 0.0
2017-Oct-13 07:00N 40°38' W 074°04'0 0.0
2017-Oct-13 06:30N 40°38' W 074°04'0 0.0
2017-Oct-13 06:00N 40°38' W 074°04'0 0.0
2017-Oct-13 05:30N 40°38' W 074°04'0 0.0
2017-Oct-13 05:00N 40°38' W 074°04'0 0.0
2017-Oct-13 04:30N 40°38' W 074°04'0 0.0
2017-Oct-13 04:00N 40°38' W 074°04'0 0.0
2017-Oct-13 03:30N 40°38' W 074°04'0 0.0
2017-Oct-13 02:59N 40°38' W 074°04'0 0.0
2017-Oct-13 02:30N 40°38' W 074°04'0 0.0
2017-Oct-13 02:00N 40°38' W 074°04'0 0.0
2017-Oct-13 01:30N 40°38' W 074°04'0 0.0
2017-Oct-13 01:00N 40°38' W 074°04'0 0.0
2017-Oct-13 00:29N 40°38' W 074°04'0 0.1
2017-Oct-12 23:52N 40°38' W 074°04'0 0.0
2017-Oct-12 23:29N 40°38' W 074°04'0 0.0
2017-Oct-12 23:00N 40°38' W 074°04'0 0.1
2017-Oct-12 22:29N 40°38' W 074°04'0 0.1
2017-Oct-12 22:00N 40°38' W 074°04'0 0.0
2017-Oct-12 21:30N 40°38' W 074°04'0 0.0
2017-Oct-12 21:00N 40°38' W 074°04'0 0.1
2017-Oct-12 20:30N 40°38' W 074°04'2 4.7
2017-Oct-12 20:00N 40°39' W 074°02'0 0.5
2017-Oct-12 19:30N 40°39' W 074°01'2 4.0
2017-Oct-12 19:00N 40°39' W 074°04'1 1.3
2017-Oct-12 18:30N 40°39' W 074°05'0 0.0
2017-Oct-12 18:00N 40°39' W 074°05'0 0.0
2017-Oct-12 17:29N 40°39' W 074°05'0 0.0
2017-Oct-12 17:00N 40°39' W 074°05'0 0.0
2017-Oct-12 14:33N 40°39' W 074°05'0 0.0
2017-Oct-12 14:29N 40°39' W 074°05'0 0.0
2017-Oct-12 13:46N 40°39' W 074°05'0 0.0
2017-Oct-12 13:26N 40°39' W 074°05'0 0.0
2017-Oct-12 12:52N 40°39' W 074°05'0 0.0
2017-Oct-12 12:27N 40°39' W 074°05'0 0.0
2017-Oct-12 11:51N 40°39' W 074°05'0 0.0
2017-Oct-12 11:30N 40°39' W 074°05'0 0.0
2017-Oct-12 10:58N 40°39' W 074°05'1 2.7
2017-Oct-12 10:30N 40°39' W 074°03'2 3.6
2017-Oct-12 09:59N 40°40' W 074°01'3 5.5
2017-Oct-12 09:28N 40°38' W 074°04'0 0.0
2017-Oct-11 19:51N 40°38' W 074°04'0 0.1
2017-Oct-11 19:30N 40°38' W 074°04'0 0.3
2017-Oct-11 18:58N 40°38' W 074°04'1 2.0
2017-Oct-11 18:30N 40°39' W 074°05'4 7.7
2017-Oct-11 18:00N 40°39' W 074°10'3 3.1
2017-Oct-11 16:58N 40°36' W 074°12'6 0.4
2017-Oct-11 00:00N 40°38' W 074°04'0 0.0
2017-Oct-10 23:30N 40°38' W 074°04'0 0.0
2017-Oct-10 23:00N 40°38' W 074°04'0 0.0
2017-Oct-10 22:27N 40°38' W 074°04'0 0.0
2017-Oct-10 22:00N 40°38' W 074°04'2 3.7
2017-Oct-10 21:30N 40°40' W 074°04'1 1.5
2017-Oct-10 21:01N 40°41' W 074°05'0 0.4
2017-Oct-10 20:30N 40°40' W 074°04'0 0.1
2017-Oct-10 20:00N 40°40' W 074°04'1 1.8
2017-Oct-10 19:30N 40°40' W 074°04'2 3.1
2017-Oct-10 19:00N 40°38' W 074°04'1 1.4
2017-Oct-10 18:26N 40°38' W 074°04'3 8.1
2017-Oct-10 18:00N 40°35' W 074°01'8 1.1
2017-Oct-10 10:28N 40°32' W 073°51'6 8.3
2017-Oct-10 09:47N 40°32' W 073°58'2 8.1
2017-Oct-10 09:30N 40°33' W 074°01'611.2
2017-Oct-10 09:00N 40°38' W 074°04'1 1.3
2017-Oct-10 08:30N 40°38' W 074°04'0 0.0
2017-Oct-10 08:00N 40°38' W 074°04'0 0.0
2017-Oct-10 07:31N 40°38' W 074°04'0 0.0
2017-Oct-10 07:01N 40°38' W 074°04'0 0.0
2017-Oct-10 06:30N 40°38' W 074°04'0 0.0
2017-Oct-10 06:00N 40°38' W 074°04'0 0.0
2017-Oct-10 05:30N 40°38' W 074°04'0 0.0
2017-Oct-10 05:00N 40°38' W 074°04'1 1.1
2017-Oct-10 04:30N 40°39' W 074°04'2 1.0
2017-Oct-10 02:34N 40°39' W 074°07'1 7.1
2017-Oct-10 02:28N 40°39' W 074°06'1 2.6
2017-Oct-10 02:00N 40°38' W 074°04'0 0.0
2017-Oct-10 01:30N 40°38' W 074°04'0 0.0
2017-Oct-10 00:55N 40°38' W 074°04'0 0.0
2017-Oct-10 00:30N 40°38' W 074°04'0 0.0
2017-Oct-09 23:58N 40°38' W 074°04'0 0.0
2017-Oct-09 23:30N 40°38' W 074°04'0 0.0
2017-Oct-09 22:59N 40°38' W 074°04'  
Track history (hours):
 
Tides and Currents Weather Stations Pressure Air Temp Water Temp Dewpoint Dewpoint Depression Visibility Wind Speed Wind Dir Waves Ship Positions

Susan Miller

Owner: Miller's Tug & Barge, Staten Island, NY. More information available from US FCC via Universal Licensing System and Coast Guard Vessel Documentation Center.

Last reported at 2017-Oct-17 23:57 UTC. Time now 2017-Oct-18 05:32 UTC.
Position N 40°38' W 074°04'.

Length 20 m; draft 3 m.

Type: Tug. MMSI: 367064470.

Date/timePositionNaut miles runAvg speedWind from/ knotsBaromVisibWave heightAir tempDewpointWater temp
2017-Oct-17 23:57N 40°38' W 074°04'2 5.0
2017-Oct-17 23:30N 40°40' W 074°03'3 6.9
2017-Oct-17 23:00N 40°43' W 074°02'3 6.7
2017-Oct-17 22:30N 40°47' W 074°00'2 4.3
2017-Oct-17 22:00N 40°49' W 073°59'0 0.2
2017-Oct-17 21:30N 40°49' W 073°59'0 0.0
2017-Oct-17 21:00N 40°49' W 073°59'3 5.1
2017-Oct-17 20:30N 40°46' W 074°00'0 0.1
2017-Oct-17 20:00N 40°46' W 074°00'0 0.1
2017-Oct-17 19:30N 40°46' W 074°00'0 0.4
2017-Oct-17 19:00N 40°46' W 073°60'0 0.0
2017-Oct-17 18:30N 40°46' W 073°60'0 0.0
2017-Oct-17 18:00N 40°46' W 073°60'0 0.0
2017-Oct-17 17:30N 40°46' W 073°60'0 0.0
2017-Oct-17 17:00N 40°46' W 073°60'0 0.0
2017-Oct-17 16:30N 40°46' W 073°60'0 0.0
2017-Oct-17 16:00N 40°46' W 073°60'0 0.0
2017-Oct-17 15:30N 40°46' W 073°60'0 0.0
2017-Oct-17 15:00N 40°46' W 073°60'0 0.0
2017-Oct-17 14:30N 40°46' W 073°60'0 0.0
2017-Oct-17 14:00N 40°46' W 073°60'0 0.0
2017-Oct-17 13:30N 40°46' W 073°60'1 1.7
2017-Oct-17 13:00N 40°47' W 073°60'4 8.6
2017-Oct-17 12:30N 40°43' W 074°01'4 7.0
2017-Oct-17 12:00N 40°40' W 074°04'0 0.4
2017-Oct-17 11:30N 40°40' W 074°04'2 0.2
2017-Oct-16 22:17N 40°38' W 074°04'2 5.5
2017-Oct-16 22:00N 40°37' W 074°03'5 8.8
2017-Oct-16 21:29N 40°32' W 074°02'4 6.5
2017-Oct-16 20:54N 40°29' W 073°60'0 0.1
2017-Oct-16 20:13N 40°29' W 073°60'0 1.3
2017-Oct-16 19:54N 40°29' W 074°00'4 8.4
2017-Oct-16 19:27N 40°33' W 074°02'4 9.5
2017-Oct-16 19:00N 40°37' W 074°03'2 3.5
2017-Oct-16 18:30N 40°38' W 074°04'2 4.7
2017-Oct-16 18:00N 40°39' W 074°07'3 6.2
2017-Oct-16 17:30N 40°42' W 074°07'3 6.4
2017-Oct-16 17:00N 40°44' W 074°05'0 0.2
2017-Oct-16 16:30N 40°44' W 074°05'3 5.7
2017-Oct-16 16:00N 40°42' W 074°07'3 6.6
2017-Oct-16 15:30N 40°39' W 074°09'3 6.2
2017-Oct-16 15:00N 40°39' W 074°05'1 2.4
2017-Oct-16 14:30N 40°38' W 074°04'6 5.5
2017-Oct-16 13:30N 40°38' W 074°12'2 0.9
2017-Oct-16 10:58N 40°36' W 074°12'3 5.5
2017-Oct-16 10:27N 40°39' W 074°11'3 6.1
2017-Oct-16 10:00N 40°39' W 074°07'3 6.1
2017-Oct-16 09:30N 40°40' W 074°03'2 3.7
2017-Oct-16 09:00N 40°40' W 074°01'1 3.0
2017-Oct-16 08:30N 40°40' W 074°03'2 3.7
2017-Oct-16 08:00N 40°38' W 074°04'0 0.0
2017-Oct-14 17:50N 40°38' W 074°04'0 0.1
2017-Oct-14 17:30N 40°38' W 074°04'0 0.0
2017-Oct-14 16:59N 40°38' W 074°04'0 0.0
2017-Oct-14 16:30N 40°38' W 074°04'0 0.0
2017-Oct-14 16:00N 40°38' W 074°04'0 0.0
2017-Oct-14 15:29N 40°38' W 074°04'0 0.0
2017-Oct-14 15:00N 40°38' W 074°04'1 2.7
2017-Oct-14 14:30N 40°37' W 074°04'3 5.4
2017-Oct-14 13:59N 40°34' W 074°02'6 2.8
2017-Oct-14 11:57N 40°34' W 073°54'4 7.2
2017-Oct-14 11:28N 40°34' W 073°59'4 8.8
2017-Oct-14 11:00N 40°37' W 074°03'2 0.1
2017-Oct-13 21:26N 40°38' W 074°04'1 2.2
2017-Oct-13 21:00N 40°39' W 074°04'3 6.8
2017-Oct-13 20:30N 40°42' W 074°02'3 6.3
2017-Oct-13 20:00N 40°45' W 074°01'3 5.7
2017-Oct-13 19:30N 40°48' W 073°59'3 5.8
2017-Oct-13 19:00N 40°50' W 073°58'4 0.4
2017-Oct-13 09:55N 40°54' W 073°55'3 8.0
2017-Oct-13 09:29N 40°51' W 073°57'4 7.9
2017-Oct-13 09:00N 40°47' W 073°59'4 8.1
2017-Oct-13 08:30N 40°44' W 074°01'4 8.0
2017-Oct-13 08:00N 40°40' W 074°03'2 3.6
2017-Oct-13 07:30N 40°38' W 074°04'0 0.0
2017-Oct-13 07:00N 40°38' W 074°04'0 0.0
2017-Oct-13 06:30N 40°38' W 074°04'0 0.0
2017-Oct-13 06:00N 40°38' W 074°04'0 0.0
2017-Oct-13 05:30N 40°38' W 074°04'0 0.0
2017-Oct-13 05:00N 40°38' W 074°04'0 0.0
2017-Oct-13 04:30N 40°38' W 074°04'0 0.0
2017-Oct-13 04:00N 40°38' W 074°04'0 0.0
2017-Oct-13 03:30N 40°38' W 074°04'0 0.0
2017-Oct-13 02:59N 40°38' W 074°04'0 0.0
2017-Oct-13 02:30N 40°38' W 074°04'0 0.0
2017-Oct-13 02:00N 40°38' W 074°04'0 0.0
2017-Oct-13 01:30N 40°38' W 074°04'0 0.0
2017-Oct-13 01:00N 40°38' W 074°04'0 0.0
2017-Oct-13 00:29N 40°38' W 074°04'0 0.1
2017-Oct-12 23:52N 40°38' W 074°04'0 0.0
2017-Oct-12 23:29N 40°38' W 074°04'0 0.0
2017-Oct-12 23:00N 40°38' W 074°04'0 0.1
2017-Oct-12 22:29N 40°38' W 074°04'0 0.1
2017-Oct-12 22:00N 40°38' W 074°04'0 0.0
2017-Oct-12 21:30N 40°38' W 074°04'0 0.0
2017-Oct-12 21:00N 40°38' W 074°04'0 0.1
2017-Oct-12 20:30N 40°38' W 074°04'2 4.7
2017-Oct-12 20:00N 40°39' W 074°02'0 0.5
2017-Oct-12 19:30N 40°39' W 074°01'2 4.0
2017-Oct-12 19:00N 40°39' W 074°04'1 1.3
2017-Oct-12 18:30N 40°39' W 074°05'0 0.0
2017-Oct-12 18:00N 40°39' W 074°05'0 0.0
2017-Oct-12 17:29N 40°39' W 074°05'0 0.0
2017-Oct-12 17:00N 40°39' W 074°05'0 0.0
2017-Oct-12 14:33N 40°39' W 074°05'0 0.0
2017-Oct-12 14:29N 40°39' W 074°05'0 0.0
2017-Oct-12 13:46N 40°39' W 074°05'0 0.0
2017-Oct-12 13:26N 40°39' W 074°05'0 0.0
2017-Oct-12 12:52N 40°39' W 074°05'0 0.0
2017-Oct-12 12:27N 40°39' W 074°05'0 0.0
2017-Oct-12 11:51N 40°39' W 074°05'0 0.0
2017-Oct-12 11:30N 40°39' W 074°05'0 0.0
2017-Oct-12 10:58N 40°39' W 074°05'1 2.7
2017-Oct-12 10:30N 40°39' W 074°03'2 3.6
2017-Oct-12 09:59N 40°40' W 074°01'3 5.5
2017-Oct-12 09:28N 40°38' W 074°04'0 0.0
2017-Oct-11 19:51N 40°38' W 074°04'0 0.1
2017-Oct-11 19:30N 40°38' W 074°04'0 0.3
2017-Oct-11 18:58N 40°38' W 074°04'1 2.0
2017-Oct-11 18:30N 40°39' W 074°05'4 7.7
2017-Oct-11 18:00N 40°39' W 074°10'3 3.1
2017-Oct-11 16:58N 40°36' W 074°12'6 0.4
2017-Oct-11 00:00N 40°38' W 074°04'0 0.0
2017-Oct-10 23:30N 40°38' W 074°04'0 0.0
2017-Oct-10 23:00N 40°38' W 074°04'0 0.0
2017-Oct-10 22:27N 40°38' W 074°04'0 0.0
2017-Oct-10 22:00N 40°38' W 074°04'2 3.7
2017-Oct-10 21:30N 40°40' W 074°04'1 1.5
2017-Oct-10 21:01N 40°41' W 074°05'0 0.4
2017-Oct-10 20:30N 40°40' W 074°04'0 0.1
2017-Oct-10 20:00N 40°40' W 074°04'1 1.8
2017-Oct-10 19:30N 40°40' W 074°04'2 3.1
2017-Oct-10 19:00N 40°38' W 074°04'1 1.4
2017-Oct-10 18:26N 40°38' W 074°04'3 8.1
2017-Oct-10 18:00N 40°35' W 074°01'8 1.1
2017-Oct-10 10:28N 40°32' W 073°51'6 8.3
2017-Oct-10 09:47N 40°32' W 073°58'2 8.1
2017-Oct-10 09:30N 40°33' W 074°01'611.2
2017-Oct-10 09:00N 40°38' W 074°04'1 1.3
2017-Oct-10 08:30N 40°38' W 074°04'0 0.0
2017-Oct-10 08:00N 40°38' W 074°04'0 0.0
2017-Oct-10 07:31N 40°38' W 074°04'0 0.0
2017-Oct-10 07:01N 40°38' W 074°04'0 0.0
2017-Oct-10 06:30N 40°38' W 074°04'0 0.0
2017-Oct-10 06:00N 40°38' W 074°04'0 0.0
2017-Oct-10 05:30N 40°38' W 074°04'0 0.0
2017-Oct-10 05:00N 40°38' W 074°04'1 1.1
2017-Oct-10 04:30N 40°39' W 074°04'2 1.0
2017-Oct-10 02:34N 40°39' W 074°07'1 7.1
2017-Oct-10 02:28N 40°39' W 074°06'1 2.6
2017-Oct-10 02:00N 40°38' W 074°04'0 0.0
2017-Oct-10 01:30N 40°38' W 074°04'0 0.0
2017-Oct-10 00:55N 40°38' W 074°04'0 0.0
2017-Oct-10 00:30N 40°38' W 074°04'0 0.0
2017-Oct-09 23:58N 40°38' W 074°04'0 0.0
2017-Oct-09 23:30N 40°38' W 074°04'0 0.0
2017-Oct-09 22:59N 40°38' W 074°04'  

Dump ship's entire track history